Time;durP1;ratioP1;P1;durP2;ratioP2;P2;SDS_P1;SDS_P2;PMS_P1;PMS_P2;Temp;Humidity;BMP_temperature;BMP_pressure;BME280_temperature;BME280_humidity;BME280_pressure;Samples;Min_cycle;Max_cycle;Signal;HPM_P1;HPM_P2
2022/05/25 00:01:35;;;;;;;10.38;6.18;;;;;;;;;;4939879;29;20141;-65
2022/05/25 00:04:03;;;;;;;11.27;6.70;;;;;;;;;;4940891;29;20044;-65
2022/05/25 00:06:30;;;;;;;9.23;6.57;;;;;;;;;;4944725;29;20542;-65
2022/05/25 00:08:57;;;;;;;9.20;6.57;;;;;;;;;;4946077;28;20462;-65
2022/05/25 00:11:25;;;;;;;11.23;6.13;;;;;;;;;;4943945;29;20062;-65
2022/05/25 00:13:53;;;;;;;8.38;6.32;;;;;;;;;;4940105;29;20111;-65
2022/05/25 00:16:20;;;;;;;7.78;6.22;;;;;;;;;;4940970;28;20110;-65
2022/05/25 00:21:32;;;;;;;14.05;7.47;;;;;;;;;;4942594;29;20233;-65
2022/05/25 00:24:00;;;;;;;11.07;6.97;;;;;;;;;;4943337;29;20062;-65
2022/05/25 00:26:27;;;;;;;16.80;8.35;;;;;;;;;;4937444;29;20043;-65
2022/05/25 00:28:56;;;;;;;16.65;7.45;;;;;;;;;;4944542;29;20110;-65
2022/05/25 00:31:24;;;;;;;11.95;7.35;;;;;;;;;;4945985;29;20081;-65
2022/05/25 00:33:51;;;;;;;13.02;7.78;;;;;;;;;;4942789;29;20557;-65
2022/05/25 00:36:19;;;;;;;12.45;7.43;;;;;;;;;;4945898;29;20447;-65
2022/05/25 00:38:46;;;;;;;10.82;8.27;;;;;;;;;;4936428;28;20486;-65
2022/05/25 00:41:13;;;;;;;12.07;7.50;;;;;;;;;;4942721;29;20090;-65
2022/05/25 00:43:42;;;;;;;9.98;6.63;;;;;;;;;;4944837;29;20433;-65
2022/05/25 00:46:14;;;;;;;10.02;6.88;;;;;;;;;;4944069;29;20086;-65
2022/05/25 00:48:44;;;;;;;12.18;6.60;;;;;;;;;;4945573;29;20130;-65
2022/05/25 00:51:15;;;;;;;12.13;6.15;;;;;;;;;;4939412;29;20055;-65
2022/05/25 00:53:44;;;;;;;10.23;6.60;;;;;;;;;;4924141;29;20051;-65
2022/05/25 00:56:14;;;;;;;8.80;5.93;;;;;;;;;;4941605;29;20102;-65
2022/05/25 00:58:44;;;;;;;10.13;6.85;;;;;;;;;;4942486;29;20052;-65
2022/05/25 01:01:12;;;;;;;9.10;6.45;;;;;;;;;;4922317;29;20082;-65
2022/05/25 01:03:40;;;;;;;11.60;6.50;;;;;;;;;;4941201;29;20047;-65
2022/05/25 01:06:10;;;;;;;8.63;5.70;;;;;;;;;;4927066;29;20059;-65
2022/05/25 01:08:41;;;;;;;14.95;6.32;;;;;;;;;;4942964;29;20136;-65
2022/05/25 01:11:16;;;;;;;11.57;7.47;;;;;;;;;;4939582;29;20050;-65
2022/05/25 01:13:46;;;;;;;12.80;7.50;;;;;;;;;;4943948;29;20043;-65
2022/05/25 01:16:26;;;;;;;13.65;6.65;;;;;;;;;;4943791;29;20140;-65
2022/05/25 01:18:56;;;;;;;13.70;6.75;;;;;;;;;;4940989;28;20051;-65
2022/05/25 01:21:25;;;;;;;12.85;6.50;;;;;;;;;;4927936;29;20059;-65
2022/05/25 01:23:58;;;;;;;14.07;6.32;;;;;;;;;;4941349;29;20055;-65
2022/05/25 01:26:43;;;;;;;11.48;7.38;;;;;;;;;;4943553;29;20659;-65
2022/05/25 01:29:15;;;;;;;11.98;6.70;;;;;;;;;;4944375;29;20095;-65
2022/05/25 01:31:46;;;;;;;13.00;7.68;;;;;;;;;;4947178;29;20056;-65
2022/05/25 01:34:19;;;;;;;15.90;6.93;;;;;;;;;;4948230;29;20051;-65
2022/05/25 01:36:52;;;;;;;11.02;6.97;;;;;;;;;;4923558;29;20502;-65
2022/05/25 01:39:22;;;;;;;10.57;6.40;;;;;;;;;;4945513;29;20380;-65
2022/05/25 01:41:54;;;;;;;14.05;7.50;;;;;;;;;;4945070;29;20051;-65
2022/05/25 01:44:23;;;;;;;11.07;6.63;;;;;;;;;;4951271;29;20187;-65
2022/05/25 01:46:53;;;;;;;19.58;7.53;;;;;;;;;;4929387;28;20066;-65
2022/05/25 01:49:22;;;;;;;10.65;6.40;;;;;;;;;;4943306;29;20530;-65
2022/05/25 01:51:50;;;;;;;12.38;7.00;;;;;;;;;;4948067;29;20055;-65
2022/05/25 01:54:20;;;;;;;12.10;6.78;;;;;;;;;;4942552;29;20102;-65
2022/05/25 01:56:51;;;;;;;9.10;6.28;;;;;;;;;;4928250;29;20119;-65
2022/05/25 01:59:19;;;;;;;11.02;6.40;;;;;;;;;;4943783;29;20051;-65
2022/05/25 02:04:19;;;;;;;10.18;6.25;;;;;;;;;;4945637;29;20052;-65
2022/05/25 02:04:38;;;;;;;11.10;6.53;;;;;;;;;;4948837;29;20090;-65
2022/05/25 02:07:20;;;;;;;13.68;6.63;;;;;;;;;;4948571;29;20075;-65
2022/05/25 02:09:56;;;;;;;15.80;6.57;;;;;;;;;;4942213;29;20058;-65
2022/05/25 02:12:32;;;;;;;9.95;6.25;;;;;;;;;;4944188;29;20047;-65
2022/05/25 02:15:02;;;;;;;8.98;6.70;;;;;;;;;;4949720;28;20047;-65
2022/05/25 02:17:34;;;;;;;11.73;7.00;;;;;;;;;;4945064;29;20494;-65
2022/05/25 02:20:05;;;;;;;10.73;6.30;;;;;;;;;;4945755;29;20059;-65
2022/05/25 02:22:35;;;;;;;15.63;6.78;;;;;;;;;;4945152;29;20055;-65
2022/05/25 02:25:04;;;;;;;13.68;6.28;;;;;;;;;;4944771;29;20058;-65
2022/05/25 02:27:33;;;;;;;10.63;6.20;;;;;;;;;;4943813;29;20060;-65
2022/05/25 02:30:03;;;;;;;11.10;6.60;;;;;;;;;;4926145;29;20059;-65
2022/05/25 02:32:34;;;;;;;15.57;6.85;;;;;;;;;;4947990;29;20055;-65
2022/05/25 02:35:02;;;;;;;12.50;6.55;;;;;;;;;;4948329;29;20063;-65
2022/05/25 02:37:31;;;;;;;13.20;5.78;;;;;;;;;;4947405;29;20055;-65
2022/05/25 02:40:00;;;;;;;9.82;5.82;;;;;;;;;;4948772;28;20498;-65
2022/05/25 02:42:27;;;;;;;18.60;5.90;;;;;;;;;;4949359;28;20119;-65
2022/05/25 02:44:55;;;;;;;10.93;6.13;;;;;;;;;;4945017;29;20047;-65
2022/05/25 02:47:22;;;;;;;15.57;6.78;;;;;;;;;;4925103;29;20060;-65
2022/05/25 02:49:51;;;;;;;11.68;5.88;;;;;;;;;;4947807;29;20569;-65
2022/05/25 02:52:18;;;;;;;12.80;5.95;;;;;;;;;;4943615;28;20098;-65
2022/05/25 02:54:45;;;;;;;11.88;6.70;;;;;;;;;;4946211;28;20107;-65
2022/05/25 02:57:12;;;;;;;13.25;5.55;;;;;;;;;;4944145;29;20047;-65
2022/05/25 02:59:39;;;;;;;16.67;5.88;;;;;;;;;;4949662;28;20047;-65
2022/05/25 03:02:07;;;;;;;15.45;5.53;;;;;;;;;;4942450;29;20430;-65
2022/05/25 03:04:34;;;;;;;10.38;5.30;;;;;;;;;;4945917;28;20055;-65
2022/05/25 03:07:03;;;;;;;10.70;5.68;;;;;;;;;;4943588;29;20060;-65
2022/05/25 03:09:30;;;;;;;14.98;6.38;;;;;;;;;;4944171;29;20119;-65
2022/05/25 03:11:58;;;;;;;14.15;5.05;;;;;;;;;;4947127;28;20123;-65
2022/05/25 03:14:26;;;;;;;16.58;6.15;;;;;;;;;;4937953;29;20058;-65
2022/05/25 03:16:53;;;;;;;12.48;5.35;;;;;;;;;;4923658;29;20518;-65
2022/05/25 03:19:20;;;;;;;16.15;5.05;;;;;;;;;;4925199;28;20111;-65
2022/05/25 03:21:47;;;;;;;9.55;5.10;;;;;;;;;;4935156;29;20127;-65
2022/05/25 03:24:16;;;;;;;10.65;4.88;;;;;;;;;;4941434;28;20059;-65
2022/05/25 03:26:43;;;;;;;13.63;5.50;;;;;;;;;;4942462;29;20044;-65
2022/05/25 03:29:11;;;;;;;15.75;5.75;;;;;;;;;;4919720;29;20055;-65
2022/05/25 03:31:38;;;;;;;13.30;5.50;;;;;;;;;;4943154;29;20496;-65
2022/05/25 03:34:06;;;;;;;8.07;4.47;;;;;;;;;;4939935;29;20048;-65
2022/05/25 03:36:33;;;;;;;11.77;4.65;;;;;;;;;;4947778;29;20106;-65
2022/05/25 03:39:00;;;;;;;15.15;5.35;;;;;;;;;;4942799;29;20566;-65
2022/05/25 03:41:28;;;;;;;12.95;4.53;;;;;;;;;;4946551;29;20380;-65
2022/05/25 03:43:56;;;;;;;12.43;5.18;;;;;;;;;;4940535;29;20409;-65
2022/05/25 03:46:23;;;;;;;10.75;4.50;;;;;;;;;;4946965;29;20047;-65
2022/05/25 03:48:50;;;;;;;11.88;4.82;;;;;;;;;;4924919;29;20051;-65
2022/05/25 03:51:17;;;;;;;11.63;4.70;;;;;;;;;;4947917;28;20055;-65
2022/05/25 03:53:44;;;;;;;15.35;5.00;;;;;;;;;;4945720;28;20050;-65
2022/05/25 03:56:12;;;;;;;14.05;4.70;;;;;;;;;;4945808;29;20051;-65
2022/05/25 03:58:40;;;;;;;9.15;4.53;;;;;;;;;;4947182;29;20051;-65
2022/05/25 04:01:07;;;;;;;13.73;4.40;;;;;;;;;;4942270;29;20055;-65
2022/05/25 04:03:35;;;;;;;18.40;5.35;;;;;;;;;;4941791;29;20521;-65
2022/05/25 04:06:02;;;;;;;12.70;4.32;;;;;;;;;;4945225;29;20066;-65
2022/05/25 04:08:29;;;;;;;13.82;4.45;;;;;;;;;;4941006;29;20059;-65
2022/05/25 04:10:56;;;;;;;15.02;5.03;;;;;;;;;;4944022;29;20419;-65
2022/05/25 04:13:25;;;;;;;15.38;4.15;;;;;;;;;;4947670;29;20059;-65
2022/05/25 04:15:54;;;;;;;11.15;4.45;;;;;;;;;;4940435;29;20126;-65
2022/05/25 04:18:21;;;;;;;9.75;3.85;;;;;;;;;;4942877;28;20055;-65
2022/05/25 04:20:48;;;;;;;18.15;4.40;;;;;;;;;;4942255;29;20130;-65
2022/05/25 04:23:15;;;;;;;9.70;3.80;;;;;;;;;;4941326;28;20062;-65
2022/05/25 04:25:43;;;;;;;12.07;4.20;;;;;;;;;;4947377;29;20063;-65
2022/05/25 04:28:10;;;;;;;11.18;4.15;;;;;;;;;;4930146;29;20050;-65
2022/05/25 04:30:37;;;;;;;14.30;4.55;;;;;;;;;;4945305;29;20100;-65
2022/05/25 04:33:06;;;;;;;16.08;4.45;;;;;;;;;;4924945;29;20070;-65
2022/05/25 04:35:33;;;;;;;12.40;4.07;;;;;;;;;;4944162;28;20138;-65
2022/05/25 04:38:00;;;;;;;8.48;3.95;;;;;;;;;;4941665;29;20055;-65
2022/05/25 04:40:29;;;;;;;15.75;3.72;;;;;;;;;;4943404;29;20054;-65
2022/05/25 04:42:57;;;;;;;14.82;4.40;;;;;;;;;;4937366;29;20051;-65
2022/05/25 04:45:26;;;;;;;15.82;4.72;;;;;;;;;;4946192;29;20152;-65
2022/05/25 04:47:53;;;;;;;11.05;3.22;;;;;;;;;;4944152;29;20138;-65
2022/05/25 04:50:22;;;;;;;9.98;3.75;;;;;;;;;;4942264;29;20051;-65
2022/05/25 04:52:50;;;;;;;8.35;3.67;;;;;;;;;;4940351;29;20494;-65
2022/05/25 04:58:02;;;;;;;10.35;3.20;;;;;;;;;;4940266;29;20043;-65
2022/05/25 05:00:30;;;;;;;9.40;3.60;;;;;;;;;;4944244;29;20499;-65
2022/05/25 05:02:57;;;;;;;9.98;3.10;;;;;;;;;;4936629;29;20519;-65
2022/05/25 05:05:26;;;;;;;9.75;3.58;;;;;;;;;;4918074;29;20357;-65
2022/05/25 05:07:53;;;;;;;7.93;2.75;;;;;;;;;;4914967;29;20501;-64
2022/05/25 05:10:20;;;;;;;11.40;2.90;;;;;;;;;;4933602;29;20664;-64
2022/05/25 05:12:47;;;;;;;7.53;2.90;;;;;;;;;;4933753;29;20047;-64
2022/05/25 05:15:15;;;;;;;12.23;3.35;;;;;;;;;;4935311;29;20061;-65
2022/05/25 05:17:42;;;;;;;6.32;2.50;;;;;;;;;;4934768;28;20058;-65
2022/05/25 05:20:10;;;;;;;10.40;3.03;;;;;;;;;;4917563;29;20131;-65
2022/05/25 05:22:39;;;;;;;12.05;2.90;;;;;;;;;;4939353;29;20135;-65
2022/05/25 05:25:07;;;;;;;8.05;2.25;;;;;;;;;;4939826;29;20098;-65
2022/05/25 05:27:35;;;;;;;8.00;2.60;;;;;;;;;;4941871;29;20049;-65
2022/05/25 05:30:03;;;;;;;8.32;2.38;;;;;;;;;;4939383;28;20055;-65
2022/05/25 05:32:31;;;;;;;8.77;2.70;;;;;;;;;;4940627;29;20159;-65
2022/05/25 05:34:58;;;;;;;10.35;2.38;;;;;;;;;;4944162;29;20149;-65
2022/05/25 05:37:28;;;;;;;7.00;2.03;;;;;;;;;;4943577;29;20055;-65
2022/05/25 05:39:57;;;;;;;11.10;2.30;;;;;;;;;;4944851;29;20055;-65
2022/05/25 05:42:25;;;;;;;6.80;1.70;;;;;;;;;;4943145;29;20043;-65
2022/05/25 05:44:54;;;;;;;9.57;2.38;;;;;;;;;;4944231;29;20063;-65
2022/05/25 05:47:23;;;;;;;9.70;2.05;;;;;;;;;;4942285;29;20487;-65
2022/05/25 05:49:51;;;;;;;8.02;2.10;;;;;;;;;;4945487;29;20048;-65
2022/05/25 05:52:18;;;;;;;8.85;2.00;;;;;;;;;;4944722;29;20122;-65
2022/05/25 05:54:45;;;;;;;10.43;2.20;;;;;;;;;;4925263;29;20529;-65
2022/05/25 05:57:15;;;;;;;9.32;2.50;;;;;;;;;;4943956;29;20887;-65
2022/05/25 05:59:42;;;;;;;7.63;2.10;;;;;;;;;;4927825;28;20097;-65
2022/05/25 06:02:09;;;;;;;9.77;2.88;;;;;;;;;;4941925;29;20058;-65
2022/05/25 06:04:36;;;;;;;8.27;1.92;;;;;;;;;;4944023;29;20051;-65
2022/05/25 06:07:04;;;;;;;9.38;2.35;;;;;;;;;;4942931;28;20403;-65
2022/05/25 06:09:32;;;;;;;6.60;2.15;;;;;;;;;;4943407;28;20063;-65
2022/05/25 06:11:59;;;;;;;10.52;2.40;;;;;;;;;;4942641;29;20063;-64
2022/05/25 06:14:28;;;;;;;7.90;2.13;;;;;;;;;;4944835;28;20094;-64
2022/05/25 06:19:40;;;;;;;9.68;2.33;;;;;;;;;;4947212;29;20509;-65
2022/05/25 06:22:09;;;;;;;11.10;2.20;;;;;;;;;;4946387;29;20051;-65
2022/05/25 06:24:37;;;;;;;10.52;2.83;;;;;;;;;;4947675;29;20110;-65
2022/05/25 06:27:08;;;;;;;10.60;2.40;;;;;;;;;;4947554;29;20051;-64
2022/05/25 06:29:36;;;;;;;4.60;2.15;;;;;;;;;;4929874;29;20414;-64
2022/05/25 06:32:04;;;;;;;5.13;2.05;;;;;;;;;;4941852;28;20151;-65
2022/05/25 06:34:31;;;;;;;8.18;2.20;;;;;;;;;;4943723;28;20058;-65
2022/05/25 06:36:58;;;;;;;7.10;2.55;;;;;;;;;;4926966;29;20063;-65
2022/05/25 06:39:25;;;;;;;7.25;2.15;;;;;;;;;;4944204;29;20051;-65
2022/05/25 06:41:53;;;;;;;6.97;2.55;;;;;;;;;;4945439;28;20055;-65
2022/05/25 06:44:21;;;;;;;8.18;2.38;;;;;;;;;;4940751;28;20553;-65
2022/05/25 06:46:51;;;;;;;6.22;2.72;;;;;;;;;;4924136;28;20071;-65
2022/05/25 06:49:18;;;;;;;11.75;2.47;;;;;;;;;;4923379;28;20365;-65
2022/05/25 06:51:46;;;;;;;8.70;2.03;;;;;;;;;;4943203;28;20056;-65
2022/05/25 06:54:14;;;;;;;9.38;2.63;;;;;;;;;;4942346;29;20059;-65
2022/05/25 06:56:41;;;;;;;7.47;2.80;;;;;;;;;;4939317;29;20113;-65
2022/05/25 06:59:08;;;;;;;11.85;3.05;;;;;;;;;;4925152;29;20411;-64
2022/05/25 07:01:36;;;;;;;7.18;2.25;;;;;;;;;;4940975;29;20538;-65
2022/05/25 07:04:06;;;;;;;6.22;2.38;;;;;;;;;;4940313;29;20055;-65
2022/05/25 07:06:33;;;;;;;6.38;2.05;;;;;;;;;;4942483;29;20056;-65
2022/05/25 07:09:00;;;;;;;8.15;2.33;;;;;;;;;;4937663;29;20058;-64
2022/05/25 07:11:27;;;;;;;9.75;2.50;;;;;;;;;;4942007;29;20056;-65
2022/05/25 07:13:55;;;;;;;5.60;2.25;;;;;;;;;;4940234;29;20506;-65
2022/05/25 07:16:23;;;;;;;4.40;2.00;;;;;;;;;;4924851;29;20051;-65
2022/05/25 07:18:50;;;;;;;4.15;1.90;;;;;;;;;;4941329;29;20066;-64
2022/05/25 07:21:20;;;;;;;4.95;1.60;;;;;;;;;;4941846;29;20051;-65
2022/05/25 07:23:48;;;;;;;6.72;1.85;;;;;;;;;;4944989;28;20518;-65
2022/05/25 07:26:16;;;;;;;5.60;2.20;;;;;;;;;;4944618;28;21024;-65
2022/05/25 07:28:44;;;;;;;4.78;1.98;;;;;;;;;;4945541;29;20083;-65
2022/05/25 07:31:12;;;;;;;7.57;2.13;;;;;;;;;;4944062;29;20098;-64
2022/05/25 07:33:40;;;;;;;8.23;2.30;;;;;;;;;;4944892;29;20569;-64
2022/05/25 07:36:08;;;;;;;9.40;2.50;;;;;;;;;;4944296;29;20426;-65
2022/05/25 07:38:38;;;;;;;5.82;1.85;;;;;;;;;;4946284;28;20107;-64
2022/05/25 07:41:05;;;;;;;6.68;2.30;;;;;;;;;;4943209;29;20050;-64
2022/05/25 07:43:34;;;;;;;6.50;2.00;;;;;;;;;;4944358;29;20070;-64
2022/05/25 07:46:01;;;;;;;5.65;1.90;;;;;;;;;;4941955;29;20051;-64
2022/05/25 07:48:28;;;;;;;6.10;1.83;;;;;;;;;;4942566;29;20157;-64
2022/05/25 07:50:55;;;;;;;8.02;2.13;;;;;;;;;;4945366;29;20071;-64
2022/05/25 07:56:09;;;;;;;4.57;1.90;;;;;;;;;;4943679;29;20058;-65
2022/05/25 07:58:36;;;;;;;10.48;2.50;;;;;;;;;;4926732;29;20171;-65
2022/05/25 08:01:06;;;;;;;6.75;1.95;;;;;;;;;;4942080;29;20122;-64
2022/05/25 08:06:18;;;;;;;5.03;2.08;;;;;;;;;;4942561;29;20054;-64
2022/05/25 08:08:46;;;;;;;9.85;2.08;;;;;;;;;;4943227;29;20216;-64
2022/05/25 08:11:17;;;;;;;6.18;1.67;;;;;;;;;;4946926;29;20050;-64
2022/05/25 08:13:46;;;;;;;6.25;1.85;;;;;;;;;;4931419;29;20438;-64
2022/05/25 08:16:14;;;;;;;5.10;1.77;;;;;;;;;;4948749;29;20624;-65
2022/05/25 08:18:41;;;;;;;5.18;2.13;;;;;;;;;;4948822;29;20047;-64
2022/05/25 08:21:09;;;;;;;4.47;2.00;;;;;;;;;;4950074;28;20089;-64
2022/05/25 08:23:36;;;;;;;10.07;2.50;;;;;;;;;;4948900;29;20039;-64
2022/05/25 08:26:03;;;;;;;8.52;2.13;;;;;;;;;;4931848;29;20055;-65
2022/05/25 08:28:32;;;;;;;6.05;2.08;;;;;;;;;;4929100;29;20059;-65
2022/05/25 08:31:00;;;;;;;6.57;2.47;;;;;;;;;;4947323;29;20051;-64
2022/05/25 08:33:27;;;;;;;5.07;2.40;;;;;;;;;;4949579;29;20082;-64
2022/05/25 08:35:55;;;;;;;8.55;3.03;;;;;;;;;;4943929;29;20059;-64
2022/05/25 08:38:23;;;;;;;6.22;2.20;;;;;;;;;;4949060;29;20055;-65
2022/05/25 08:40:52;;;;;;;5.70;2.40;;;;;;;;;;4931815;29;20070;-64
2022/05/25 08:43:19;;;;;;;3.75;2.28;;;;;;;;;;4931379;29;20139;-64
2022/05/25 08:45:51;;;;;;;6.80;2.15;;;;;;;;;;4929658;29;20122;-65
2022/05/25 08:48:19;;;;;;;4.88;1.90;;;;;;;;;;4931519;29;20097;-64
2022/05/25 08:50:51;;;;;;;4.25;1.88;;;;;;;;;;4934913;29;20460;-65
2022/05/25 08:53:18;;;;;;;6.95;1.95;;;;;;;;;;4940356;29;20098;-64
2022/05/25 08:55:51;;;;;;;4.90;2.10;;;;;;;;;;4939641;29;20059;-64
2022/05/25 08:58:19;;;;;;;6.50;2.05;;;;;;;;;;4936161;29;20126;-64
2022/05/25 09:00:47;;;;;;;8.13;2.05;;;;;;;;;;4939316;29;20058;-64
2022/05/25 09:03:21;;;;;;;7.65;1.58;;;;;;;;;;4945463;28;20058;-65
2022/05/25 09:05:51;;;;;;;7.88;1.85;;;;;;;;;;4947843;29;20499;-65
2022/05/25 09:08:24;;;;;;;5.13;1.80;;;;;;;;;;4943424;28;20820;-64
2022/05/25 09:10:55;;;;;;;9.18;2.00;;;;;;;;;;4940511;29;20043;-64
2022/05/25 09:13:27;;;;;;;4.28;1.60;;;;;;;;;;4919050;29;20059;-65
2022/05/25 09:18:44;;;;;;;6.43;1.73;;;;;;;;;;4942488;28;20418;-64
2022/05/25 09:21:12;;;;;;;8.10;2.00;;;;;;;;;;4941424;29;20112;-64
2022/05/25 09:23:39;;;;;;;6.40;2.00;;;;;;;;;;4939171;29;20047;-64
2022/05/25 09:26:06;;;;;;;6.78;1.70;;;;;;;;;;4924499;29;20055;-64
2022/05/25 09:28:35;;;;;;;8.52;2.17;;;;;;;;;;4928431;29;20109;-64
2022/05/25 09:31:03;;;;;;;5.40;1.98;;;;;;;;;;4943676;29;20487;-64
2022/05/25 09:33:35;;;;;;;6.53;2.08;;;;;;;;;;4948379;29;20507;-64
2022/05/25 09:36:05;;;;;;;6.88;1.25;;;;;;;;;;4945873;29;20111;-64
2022/05/25 09:38:37;;;;;;;5.28;1.60;;;;;;;;;;4944028;29;20058;-64
2022/05/25 09:41:06;;;;;;;6.45;1.90;;;;;;;;;;4948238;29;20061;-64
2022/05/25 09:43:33;;;;;;;7.53;2.75;;;;;;;;;;4947935;29;20117;-64
2022/05/25 09:46:05;;;;;;;8.98;2.88;;;;;;;;;;4944958;29;20066;-64
2022/05/25 09:48:34;;;;;;;6.73;1.80;;;;;;;;;;4928248;29;20047;-64
2022/05/25 09:51:06;;;;;;;6.85;1.95;;;;;;;;;;4948474;29;20175;-64
2022/05/25 09:53:37;;;;;;;8.63;2.17;;;;;;;;;;4945780;29;20110;-64
2022/05/25 09:56:09;;;;;;;7.47;2.25;;;;;;;;;;4949279;29;20055;-64
2022/05/25 09:58:38;;;;;;;5.70;2.08;;;;;;;;;;4950889;29;20047;-65
2022/05/25 10:01:07;;;;;;;7.30;2.65;;;;;;;;;;4948264;29;20080;-65
2022/05/25 10:03:38;;;;;;;10.10;2.80;;;;;;;;;;4952357;29;20073;-64
2022/05/25 10:06:18;;;;;;;11.63;3.17;;;;;;;;;;4951878;29;20047;-64
2022/05/25 10:08:46;;;;;;;10.98;4.07;;;;;;;;;;4945231;29;20062;-64
2022/05/25 10:11:27;;;;;;;9.80;4.88;;;;;;;;;;4949789;29;20047;-64
2022/05/25 10:13:56;;;;;;;12.82;5.40;;;;;;;;;;4934569;29;20074;-64
2022/05/25 10:16:25;;;;;;;12.57;4.55;;;;;;;;;;4951674;29;20057;-64
2022/05/25 10:18:52;;;;;;;14.15;5.50;;;;;;;;;;4934799;29;20063;-64
2022/05/25 10:21:26;;;;;;;21.60;6.47;;;;;;;;;;4934565;29;20051;-64
2022/05/25 10:23:55;;;;;;;19.52;8.60;;;;;;;;;;4934523;29;20051;-64
2022/05/25 10:26:31;;;;;;;21.17;10.55;;;;;;;;;;4944353;29;20055;-64
2022/05/25 10:29:00;;;;;;;17.65;10.20;;;;;;;;;;4929426;29;20118;-65
2022/05/25 10:37:00;;;;;;;12.98;6.95;;;;;;;;;;4928655;28;20055;-65
2022/05/25 10:39:35;;;;;;;10.50;5.75;;;;;;;;;;4930682;29;20103;-65
2022/05/25 10:42:08;;;;;;;7.97;4.35;;;;;;;;;;4952268;28;20055;-65
2022/05/25 10:44:40;;;;;;;9.45;4.10;;;;;;;;;;4933515;29;20063;-65
2022/05/25 10:47:10;;;;;;;8.50;3.22;;;;;;;;;;4932292;29;20098;-65
2022/05/25 10:49:38;;;;;;;6.75;3.83;;;;;;;;;;4949145;29;20051;-65
2022/05/25 10:52:08;;;;;;;9.10;3.80;;;;;;;;;;4951021;29;20043;-65
2022/05/25 10:54:50;;;;;;;12.43;4.55;;;;;;;;;;4934161;29;20070;-65
2022/05/25 10:57:27;;;;;;;9.45;4.82;;;;;;;;;;4945833;29;20047;-65
2022/05/25 11:00:03;;;;;;;7.50;3.67;;;;;;;;;;4950862;28;20114;-65
2022/05/25 11:02:38;;;;;;;6.20;2.45;;;;;;;;;;4945007;29;20051;-64
2022/05/25 11:05:12;;;;;;;10.20;2.70;;;;;;;;;;4940205;29;20503;-65
2022/05/25 11:07:40;;;;;;;6.75;1.92;;;;;;;;;;4925170;29;20059;-65
2022/05/25 11:10:26;;;;;;;7.07;1.70;;;;;;;;;;4942884;29;20085;-65
2022/05/25 11:13:03;;;;;;;4.25;1.20;;;;;;;;;;4949585;29;20050;-65
2022/05/25 11:15:34;;;;;;;5.70;0.90;;;;;;;;;;4950839;29;20051;-65
2022/05/25 11:18:09;;;;;;;6.05;1.55;;;;;;;;;;4932978;29;20051;-64
2022/05/25 11:20:41;;;;;;;5.07;1.13;;;;;;;;;;4950441;29;20110;-64
2022/05/25 11:23:27;;;;;;;4.15;1.08;;;;;;;;;;4933903;28;20051;-65
2022/05/25 11:26:09;;;;;;;5.57;1.20;;;;;;;;;;4944460;29;20066;-65
2022/05/25 11:28:45;;;;;;;5.63;1.20;;;;;;;;;;4944093;29;20635;-65
2022/05/25 11:31:19;;;;;;;4.32;1.20;;;;;;;;;;4950792;28;20098;-65
2022/05/25 11:34:03;;;;;;;4.97;1.00;;;;;;;;;;4950971;29;20059;-64
2022/05/25 11:36:39;;;;;;;7.47;1.60;;;;;;;;;;4949100;29;20047;-64
2022/05/25 11:39:11;;;;;;;7.88;1.20;;;;;;;;;;4948021;29;20102;-64
2022/05/25 11:41:39;;;;;;;5.35;1.10;;;;;;;;;;4947067;29;20464;-64
2022/05/25 11:44:21;;;;;;;3.90;1.00;;;;;;;;;;4949758;29;20122;-64
2022/05/25 11:46:51;;;;;;;3.53;0.90;;;;;;;;;;4949410;29;20474;-65
2022/05/25 11:49:33;;;;;;;5.45;1.13;;;;;;;;;;4946524;29;20062;-64
2022/05/25 11:52:08;;;;;;;3.70;1.02;;;;;;;;;;4949222;29;20767;-64
2022/05/25 11:54:45;;;;;;;3.33;0.90;;;;;;;;;;4950090;29;20110;-64
2022/05/25 11:57:17;;;;;;;5.43;1.00;;;;;;;;;;4949195;29;20127;-64
2022/05/25 11:59:53;;;;;;;6.97;0.88;;;;;;;;;;4946213;29;20398;-65
2022/05/25 12:02:32;;;;;;;4.65;0.90;;;;;;;;;;4949084;29;21577;-65
2022/05/25 12:05:09;;;;;;;3.75;0.90;;;;;;;;;;4930450;29;20058;-64
2022/05/25 12:07:44;;;;;;;3.90;1.00;;;;;;;;;;4947263;29;20051;-65
2022/05/25 12:10:24;;;;;;;7.30;1.10;;;;;;;;;;4948240;29;20059;-64
2022/05/25 12:12:54;;;;;;;6.30;1.30;;;;;;;;;;4948770;28;20055;-64
2022/05/25 12:15:23;;;;;;;12.80;2.28;;;;;;;;;;4949535;29;20498;-64
2022/05/25 12:18:01;;;;;;;11.18;1.45;;;;;;;;;;4949866;29;20852;-65
2022/05/25 12:20:29;;;;;;;5.30;1.45;;;;;;;;;;4942899;29;20513;-65
2022/05/25 12:23:00;;;;;;;7.60;1.38;;;;;;;;;;4944511;29;20498;-65
2022/05/25 12:25:27;;;;;;;3.00;1.20;;;;;;;;;;4948213;29;20110;-65
2022/05/25 12:27:57;;;;;;;7.82;1.58;;;;;;;;;;4919581;29;20059;-64
2022/05/25 12:30:30;;;;;;;5.63;1.38;;;;;;;;;;4946826;29;20082;-64
2022/05/25 12:33:00;;;;;;;6.78;1.65;;;;;;;;;;4942991;29;20048;-65
2022/05/25 12:35:28;;;;;;;10.50;1.55;;;;;;;;;;4928909;29;20066;-65
2022/05/25 12:37:56;;;;;;;5.15;1.40;;;;;;;;;;4946250;29;20122;-64
2022/05/25 12:40:43;;;;;;;5.65;1.30;;;;;;;;;;4946602;29;20105;-65
2022/05/25 12:43:25;;;;;;;6.63;1.30;;;;;;;;;;4928573;29;20065;-65
2022/05/25 12:48:49;;;;;;;4.88;1.05;;;;;;;;;;4941669;28;20055;-65
2022/05/25 12:51:29;;;;;;;5.40;1.20;;;;;;;;;;4940465;29;20044;-65
2022/05/25 12:54:00;;;;;;;6.22;1.20;;;;;;;;;;4932039;29;20111;-65
2022/05/25 12:56:34;;;;;;;7.78;0.80;;;;;;;;;;4939194;29;20055;-65
2022/05/25 12:59:04;;;;;;;4.13;1.00;;;;;;;;;;4937951;29;20102;-65
2022/05/25 13:01:34;;;;;;;4.63;0.77;;;;;;;;;;4927143;29;20102;-65
2022/05/25 13:04:20;;;;;;;5.05;0.80;;;;;;;;;;4936996;29;20047;-65
2022/05/25 13:07:06;;;;;;;3.33;0.73;;;;;;;;;;4946380;29;20090;-65
2022/05/25 13:09:35;;;;;;;5.43;0.88;;;;;;;;;;4946543;29;20051;-66
2022/05/25 13:12:17;;;;;;;8.57;1.05;;;;;;;;;;4923403;29;20126;-65
2022/05/25 13:14:57;;;;;;;3.10;0.70;;;;;;;;;;4942221;29;20044;-66
2022/05/25 13:17:48;;;;;;;3.17;0.80;;;;;;;;;;4944654;29;20044;-65
2022/05/25 13:20:47;;;;;;;4.82;0.77;;;;;;;;;;4945939;29;20051;-65
2022/05/25 13:23:29;;;;;;;2.65;0.75;;;;;;;;;;4945203;28;20051;-65
2022/05/25 13:26:00;;;;;;;4.65;0.93;;;;;;;;;;4950572;29;20510;-65
2022/05/25 13:28:30;;;;;;;5.60;0.80;;;;;;;;;;4951501;29;20418;-65
2022/05/25 13:31:04;;;;;;;5.53;1.20;;;;;;;;;;4953618;28;20050;-64
2022/05/25 13:33:37;;;;;;;5.75;1.13;;;;;;;;;;4952656;29;20086;-64
2022/05/25 13:36:08;;;;;;;6.20;1.00;;;;;;;;;;4951344;29;20383;-64
2022/05/25 13:38:38;;;;;;;6.78;1.45;;;;;;;;;;4953003;29;20518;-65
2022/05/25 13:41:08;;;;;;;7.35;1.17;;;;;;;;;;4950571;29;20051;-65
2022/05/25 13:43:46;;;;;;;10.07;1.48;;;;;;;;;;4934096;29;20059;-65
2022/05/25 13:46:28;;;;;;;13.07;1.75;;;;;;;;;;4951331;29;20051;-65
2022/05/25 13:48:56;;;;;;;8.23;1.13;;;;;;;;;;4951768;29;20126;-66
2022/05/25 13:51:24;;;;;;;9.93;1.10;;;;;;;;;;4935126;29;20059;-65
2022/05/25 13:53:52;;;;;;;10.30;1.60;;;;;;;;;;4952211;29;20090;-65
2022/05/25 13:56:21;;;;;;;5.50;1.38;;;;;;;;;;4950832;29;20043;-65
2022/05/25 13:58:50;;;;;;;5.55;1.55;;;;;;;;;;4951420;29;20694;-65
2022/05/25 14:01:24;;;;;;;9.23;1.05;;;;;;;;;;4951521;29;20059;-65
2022/05/25 14:03:52;;;;;;;7.07;1.10;;;;;;;;;;4952418;29;20059;-64
2022/05/25 14:06:19;;;;;;;6.45;1.13;;;;;;;;;;4950784;29;20054;-64
2022/05/25 14:11:36;;;;;;;4.85;1.10;;;;;;;;;;4913556;29;20052;-65
2022/05/25 14:14:04;;;;;;;7.93;1.20;;;;;;;;;;4930479;29;20110;-65
2022/05/25 14:16:32;;;;;;;13.65;1.48;;;;;;;;;;4928133;29;20682;-65
2022/05/25 14:19:01;;;;;;;6.50;1.38;;;;;;;;;;4931699;29;20052;-64
2022/05/25 14:21:36;;;;;;;5.03;1.45;;;;;;;;;;4932638;29;20506;-64
2022/05/25 14:24:11;;;;;;;9.23;1.30;;;;;;;;;;4931971;29;20063;-65
2022/05/25 14:26:39;;;;;;;6.28;1.45;;;;;;;;;;4912431;29;20114;-65
2022/05/25 14:29:08;;;;;;;9.38;1.40;;;;;;;;;;4919309;29;20059;-64
2022/05/25 14:31:41;;;;;;;5.70;1.10;;;;;;;;;;4932575;29;20048;-64
2022/05/25 14:34:09;;;;;;;5.57;1.35;;;;;;;;;;4932169;29;20059;-65
2022/05/25 14:36:37;;;;;;;8.52;1.30;;;;;;;;;;4932264;29;20056;-64
2022/05/25 14:39:06;;;;;;;7.45;1.48;;;;;;;;;;4930004;29;20051;-65
2022/05/25 14:41:44;;;;;;;10.55;1.45;;;;;;;;;;4929927;29;20058;-64
2022/05/25 14:44:26;;;;;;;7.63;1.40;;;;;;;;;;4932151;29;20051;-64
2022/05/25 14:46:53;;;;;;;9.57;1.55;;;;;;;;;;4931561;29;20123;-65
2022/05/25 14:49:22;;;;;;;7.75;1.52;;;;;;;;;;4914429;29;20526;-65
2022/05/25 14:51:50;;;;;;;8.80;1.30;;;;;;;;;;4931679;29;20052;-65
2022/05/25 14:54:22;;;;;;;9.73;1.55;;;;;;;;;;4928891;29;20050;-65
2022/05/25 14:56:50;;;;;;;7.22;1.52;;;;;;;;;;4931447;29;20048;-65
2022/05/25 14:59:27;;;;;;;8.32;1.42;;;;;;;;;;4931699;29;20052;-65
2022/05/25 15:01:56;;;;;;;9.15;1.38;;;;;;;;;;4930523;29;20127;-65
2022/05/25 15:04:30;;;;;;;5.63;1.40;;;;;;;;;;4932097;29;20138;-65
2022/05/25 15:06:58;;;;;;;5.43;1.13;;;;;;;;;;4928435;29;20075;-65
2022/05/25 15:09:29;;;;;;;7.07;1.30;;;;;;;;;;4909401;29;20059;-65
2022/05/25 15:12:03;;;;;;;10.32;1.60;;;;;;;;;;4931403;29;20055;-65
2022/05/25 15:20:14;;;;;;;8.40;1.35;;;;;;;;;;4931674;29;20055;-65
2022/05/25 15:22:43;;;;;;;9.95;1.63;;;;;;;;;;4927595;29;20057;-65
2022/05/25 15:25:15;;;;;;;10.45;1.55;;;;;;;;;;4931737;29;20411;-65
2022/05/25 15:27:46;;;;;;;9.43;1.35;;;;;;;;;;4929662;29;20079;-65
2022/05/25 15:30:26;;;;;;;8.25;1.90;;;;;;;;;;4928962;29;20062;-65